createdAt,value
2023-03-12T00:00:07.932Z,-0.99
2023-03-12T00:02:23.676Z,-0.98
2023-03-12T00:04:19.181Z,-0.95
2023-03-12T00:06:14.687Z,-0.96
2023-03-12T00:08:13.681Z,-0.96
2023-03-12T00:10:10.285Z,-0.95
2023-03-12T00:12:05.736Z,-0.95
2023-03-12T00:14:02.549Z,-0.92
2023-03-12T00:15:58.122Z,-0.89
2023-03-12T00:17:53.743Z,-0.90
2023-03-12T00:19:48.981Z,-0.89
2023-03-12T00:21:44.158Z,-0.81
2023-03-12T00:23:42.620Z,-0.83
2023-03-12T00:25:37.581Z,-0.82
2023-03-12T00:27:32.860Z,-0.79
2023-03-12T00:29:27.799Z,-0.77
2023-03-12T00:31:24.739Z,-0.73
2023-03-12T00:33:19.719Z,-0.74
2023-03-12T00:35:15.548Z,-0.73
2023-03-12T00:37:11.168Z,-0.73
2023-03-12T00:39:09.514Z,-0.70
2023-03-12T00:41:04.453Z,-0.69
2023-03-12T00:42:59.703Z,-0.66
2023-03-12T00:44:54.689Z,-0.65
2023-03-12T00:46:50.121Z,-0.65
2023-03-12T00:48:45.465Z,-0.63
2023-03-12T00:50:40.980Z,-0.61
2023-03-12T00:52:36.357Z,-0.60
2023-03-12T00:54:34.666Z,-0.59
2023-03-12T00:56:30.241Z,-0.58
2023-03-12T00:58:26.578Z,-0.54
2023-03-12T01:00:23.261Z,-0.55
2023-03-12T01:02:19.123Z,-0.55
2023-03-12T01:04:15.125Z,-0.55
2023-03-12T01:06:10.902Z,-0.53
2023-03-12T01:08:07.139Z,-0.54
2023-03-12T01:10:05.437Z,-0.54
2023-03-12T01:12:00.872Z,-0.51
2023-03-12T01:13:56.474Z,-0.47
2023-03-12T01:15:51.753Z,-0.48
2023-03-12T01:17:47.126Z,-0.47
2023-03-12T01:19:42.099Z,-0.46
2023-03-12T01:21:38.437Z,-0.44
2023-03-12T01:23:33.482Z,-0.40
2023-03-12T01:25:31.643Z,-0.39
2023-03-12T01:27:26.829Z,-0.33
2023-03-12T01:29:22.110Z,-0.32
2023-03-12T01:31:20.970Z,-0.33
2023-03-12T01:33:16.785Z,-0.35
2023-03-12T01:35:13.080Z,-0.27
2023-03-12T01:37:09.585Z,-0.29
2023-03-12T01:39:04.600Z,-0.24
2023-03-12T01:41:03.375Z,-0.20
2023-03-12T01:43:00.303Z,-0.23
2023-03-12T01:44:59.396Z,-0.24
2023-03-12T01:46:54.412Z,-0.25
2023-03-12T01:48:54.148Z,-0.24
2023-03-12T01:50:49.276Z,-0.18
2023-03-12T01:52:44.215Z,-0.23
2023-03-12T01:54:44.313Z,-0.26
2023-03-12T01:56:43.342Z,-0.21
2023-03-12T01:58:43.374Z,-0.22
2023-03-12T02:00:39.341Z,-0.20
2023-03-12T02:02:36.180Z,-0.26
2023-03-12T02:04:33.802Z,-0.25
2023-03-12T02:06:36.171Z,-0.25
2023-03-12T02:08:32.263Z,-0.23
2023-03-12T02:10:28.667Z,-0.22
2023-03-12T02:12:26.206Z,-0.22
2023-03-12T02:14:22.082Z,-0.20
2023-03-12T02:16:18.264Z,-0.18
2023-03-12T02:18:18.088Z,-0.25
2023-03-12T02:20:19.977Z,-0.23
2023-03-12T02:22:16.798Z,-0.14
2023-03-12T02:24:20.904Z,-0.18
2023-03-12T02:26:20.390Z,-0.19
2023-03-12T02:28:17.938Z,-0.15
2023-03-12T02:30:17.297Z,-0.13
2023-03-12T02:32:18.262Z,-0.12
2023-03-12T02:34:13.950Z,-0.12
2023-03-12T02:36:09.380Z,-0.17
2023-03-12T02:38:06.015Z,-0.10
2023-03-12T02:40:07.856Z,-0.06
2023-03-12T02:42:05.925Z,-0.13
2023-03-12T02:44:05.520Z,-0.11
2023-03-12T02:46:00.930Z,-0.18
2023-03-12T02:47:56.093Z,-0.20
2023-03-12T02:49:51.392Z,-0.18
2023-03-12T02:51:47.645Z,-0.21
2023-03-12T02:53:43.090Z,-0.19
2023-03-12T02:55:37.993Z,-0.20
2023-03-12T02:57:37.631Z,-0.15
2023-03-12T02:59:32.648Z,-0.16
2023-03-12T03:01:28.293Z,-0.19
2023-03-12T03:03:23.335Z,-0.10
2023-03-12T03:05:20.372Z,-0.20
2023-03-12T03:07:15.369Z,-0.21
2023-03-12T03:09:10.884Z,-0.26
2023-03-12T03:11:06.281Z,-0.21
2023-03-12T03:13:04.158Z,-0.21
2023-03-12T03:14:59.856Z,-0.24
2023-03-12T03:16:55.487Z,-0.16
2023-03-12T03:18:50.741Z,-0.19
2023-03-12T03:20:46.326Z,-0.25
2023-03-12T03:22:41.929Z,-0.19
2023-03-12T03:24:38.124Z,-0.16
2023-03-12T03:26:31.320Z,-0.24
2023-03-12T03:28:32.139Z,-0.23
2023-03-12T03:30:27.427Z,-0.30
2023-03-12T03:32:23.100Z,-0.22
2023-03-12T03:34:18.294Z,-0.32
2023-03-12T03:36:15.048Z,-0.38
2023-03-12T03:38:10.389Z,-0.34
2023-03-12T03:40:06.451Z,-0.37
2023-03-12T03:42:01.628Z,-0.37
2023-03-12T03:44:02.159Z,-0.33
2023-03-12T03:46:00.389Z,-0.32
2023-03-12T03:47:56.205Z,-0.38
2023-03-12T03:49:51.841Z,-0.45
2023-03-12T03:51:47.453Z,-0.50
2023-03-12T03:53:42.782Z,-0.54
2023-03-12T03:55:39.815Z,-0.56
2023-03-12T03:57:35.151Z,-0.53
2023-03-12T03:59:33.375Z,-0.60
2023-03-12T04:01:28.713Z,-0.60
2023-03-12T04:03:24.322Z,-0.63
2023-03-12T04:05:20.840Z,-0.65
2023-03-12T04:07:16.571Z,-0.66
2023-03-12T04:09:11.794Z,-0.70
2023-03-12T04:11:11.429Z,-0.70
2023-03-12T04:13:06.705Z,-0.69
2023-03-12T04:15:05.037Z,-0.73
2023-03-12T04:17:00.147Z,-0.67
2023-03-12T04:18:55.558Z,-0.74
2023-03-12T04:20:50.724Z,-0.77
2023-03-12T04:22:46.022Z,-0.85
2023-03-12T04:24:41.053Z,-0.87
2023-03-12T04:26:36.359Z,-0.87
2023-03-12T04:28:31.613Z,-0.87
2023-03-12T04:30:29.596Z,-0.84
2023-03-12T04:32:24.819Z,-0.83
2023-03-12T04:34:20.298Z,-0.82
2023-03-12T04:36:16.299Z,-0.79
2023-03-12T04:38:11.669Z,-0.87
2023-03-12T04:40:09.459Z,-0.84
2023-03-12T04:42:04.815Z,-0.87
2023-03-12T04:43:59.752Z,-0.84
2023-03-12T04:45:58.190Z,-0.90
2023-03-12T04:47:53.800Z,-0.90
2023-03-12T04:49:49.180Z,-0.91
2023-03-12T04:51:44.153Z,-0.96
2023-03-12T04:53:40.592Z,-0.97
2023-03-12T04:55:35.606Z,-0.98
2023-03-12T04:57:30.984Z,-0.96
2023-03-12T04:59:25.941Z,-1.03
2023-03-12T05:01:27.549Z,-1.04
2023-03-12T05:03:23.054Z,-1.00
2023-03-12T05:05:18.348Z,-1.03
2023-03-12T05:07:13.436Z,-1.02
2023-03-12T05:09:08.846Z,-1.00
2023-03-12T05:11:03.837Z,-1.03
2023-03-12T05:12:59.170Z,-1.07
2023-03-12T05:14:54.248Z,-1.08
2023-03-12T05:16:52.316Z,-1.03
2023-03-12T05:18:47.918Z,-1.08
2023-03-12T05:20:43.247Z,-1.05
2023-03-12T05:22:38.185Z,-1.04
2023-03-12T05:24:33.471Z,-1.03
2023-03-12T05:26:33.655Z,-1.07
2023-03-12T05:28:30.627Z,-1.07
2023-03-12T05:30:25.752Z,-1.10
2023-03-12T05:32:23.958Z,-1.16
2023-03-12T05:34:19.114Z,-1.13
2023-03-12T05:36:15.206Z,-1.20
2023-03-12T05:38:10.140Z,-1.19
2023-03-12T05:40:07.719Z,-1.16
2023-03-12T05:42:02.702Z,-1.24
2023-03-12T05:43:59.434Z,-1.22
2023-03-12T05:45:55.174Z,-1.24
2023-03-12T05:47:53.243Z,-1.23
2023-03-12T05:49:48.340Z,-1.22
2023-03-12T05:51:43.801Z,-1.21
2023-03-12T05:53:38.845Z,-1.22
2023-03-12T05:55:37.451Z,-1.23
2023-03-12T05:57:32.579Z,-1.25
2023-03-12T05:59:28.087Z,-1.27
2023-03-12T06:01:26.183Z,-1.27
2023-03-12T06:03:24.109Z,-1.26
2023-03-12T06:05:19.265Z,-1.28
2023-03-12T06:07:14.611Z,-1.30
2023-03-12T06:09:09.832Z,-1.30
2023-03-12T06:11:05.424Z,-1.29
2023-03-12T06:13:00.956Z,-1.27
2023-03-12T06:14:56.543Z,-1.30
2023-03-12T06:16:51.975Z,-1.26
2023-03-12T06:18:50.277Z,-1.23
2023-03-12T06:20:45.433Z,-1.21
2023-03-12T06:22:40.738Z,-1.24
2023-03-12T06:24:35.843Z,-1.26
2023-03-12T06:26:31.436Z,-1.25
2023-03-12T06:28:26.477Z,-1.24
2023-03-12T06:30:21.730Z,-1.24
2023-03-12T06:32:18.339Z,-1.25
2023-03-12T06:34:16.874Z,-1.18
2023-03-12T06:36:13.133Z,-1.11
2023-03-12T06:38:08.148Z,-1.17
2023-03-12T06:40:04.746Z,-1.19
2023-03-12T06:41:59.781Z,-1.20
2023-03-12T06:43:55.242Z,-1.18
2023-03-12T06:45:50.753Z,-1.25
2023-03-12T06:47:46.107Z,-1.24
2023-03-12T06:49:43.692Z,-1.15
2023-03-12T06:51:39.113Z,-1.10
2023-03-12T06:53:35.030Z,-1.07
2023-03-12T06:55:30.655Z,-1.03
2023-03-12T06:57:25.592Z,-0.98
2023-03-12T06:59:21.759Z,-0.93
2023-03-12T07:01:16.864Z,-0.95
2023-03-12T07:03:13.480Z,-0.92
2023-03-12T07:05:12.720Z,-0.86
2023-03-12T07:07:08.627Z,-0.91
2023-03-12T07:09:06.271Z,-0.85
2023-03-12T07:11:03.597Z,-0.88
2023-03-12T07:12:58.885Z,-0.76
2023-03-12T07:14:54.196Z,-0.87
2023-03-12T07:16:49.205Z,-0.83
2023-03-12T07:18:44.633Z,-0.84
2023-03-12T07:20:44.702Z,-0.77
2023-03-12T07:22:40.051Z,-0.76
2023-03-12T07:24:34.970Z,-0.66
2023-03-12T07:26:30.385Z,-0.69
2023-03-12T07:28:25.837Z,-0.66
2023-03-12T07:30:21.536Z,-0.59
2023-03-12T07:32:16.540Z,-0.50
2023-03-12T07:34:11.980Z,-0.36
2023-03-12T07:36:11.005Z,-0.28
2023-03-12T07:38:06.495Z,-0.28
2023-03-12T07:40:01.732Z,-0.38
2023-03-12T07:41:57.228Z,-0.43
2023-03-12T07:43:52.400Z,-0.43
2023-03-12T07:45:48.123Z,-0.42
2023-03-12T07:47:43.254Z,-0.34
2023-03-12T07:49:39.628Z,-0.31
2023-03-12T07:51:37.203Z,-0.16
2023-03-12T07:53:32.510Z,-0.10
2023-03-12T07:55:27.595Z,-0.11
2023-03-12T07:57:23.102Z,-0.11
2023-03-12T07:59:19.762Z,-0.05
2023-03-12T08:01:15.274Z,0.07
2023-03-12T08:03:10.520Z,0.07
2023-03-12T08:05:06.571Z,0.07
2023-03-12T08:07:06.324Z,0.04
2023-03-12T08:09:03.336Z,0.00
2023-03-12T08:10:58.319Z,0.03
2023-03-12T08:12:53.720Z,0.11
2023-03-12T08:14:49.097Z,0.27
2023-03-12T08:16:44.639Z,0.29
2023-03-12T08:18:39.894Z,0.41
2023-03-12T08:20:35.208Z,0.45
2023-03-12T08:22:32.737Z,0.45
2023-03-12T08:24:28.188Z,0.46
2023-03-12T08:26:23.244Z,0.54
2023-03-12T08:28:19.679Z,0.58
2023-03-12T08:30:15.924Z,0.76
2023-03-12T08:32:12.375Z,0.92
2023-03-12T08:34:07.435Z,0.74
2023-03-12T08:36:02.760Z,0.74
2023-03-12T08:38:01.041Z,0.76
2023-03-12T08:39:57.511Z,0.78
2023-03-12T08:41:55.438Z,0.98
2023-03-12T08:43:50.831Z,1.06
2023-03-12T08:45:45.861Z,1.20
2023-03-12T08:47:42.170Z,1.11
2023-03-12T08:49:37.643Z,1.13
2023-03-12T08:51:33.039Z,1.34
2023-03-12T08:53:30.830Z,1.29
2023-03-12T08:55:27.807Z,1.29
2023-03-12T08:57:22.784Z,1.50
2023-03-12T08:59:18.184Z,1.54
2023-03-12T09:01:15.239Z,1.46
2023-03-12T09:03:14.021Z,1.58
2023-03-12T09:05:10.197Z,1.61
2023-03-12T09:07:05.452Z,1.73
2023-03-12T09:09:05.079Z,1.97
2023-03-12T09:11:00.434Z,1.87
2023-03-12T09:12:55.399Z,1.82
2023-03-12T09:15:03.117Z,2.11
2023-03-12T09:17:00.154Z,2.47
2023-03-12T09:18:55.583Z,2.59
2023-03-12T09:20:50.548Z,2.91
2023-03-12T09:22:46.476Z,3.25
2023-03-12T09:24:44.289Z,3.08
2023-03-12T09:26:39.603Z,2.79
2023-03-12T09:28:34.917Z,3.30
2023-03-12T09:30:32.067Z,3.30
2023-03-12T09:32:27.408Z,3.40
2023-03-12T09:34:22.755Z,3.70
2023-03-12T09:36:17.833Z,3.30
2023-03-12T09:38:16.468Z,3.42
2023-03-12T09:40:19.960Z,3.41
2023-03-12T09:42:25.691Z,3.31
2023-03-12T09:44:28.354Z,3.02
2023-03-12T09:46:29.447Z,3.19
2023-03-12T09:48:33.979Z,3.35
2023-03-12T09:50:33.474Z,2.92
2023-03-12T09:52:32.084Z,2.85
2023-03-12T09:54:35.188Z,2.90
2023-03-12T09:56:32.970Z,3.36
2023-03-12T09:58:32.550Z,3.56
2023-03-12T10:00:33.484Z,4.20
2023-03-12T10:02:45.966Z,4.38
2023-03-12T10:04:58.650Z,4.01
2023-03-12T10:06:59.652Z,4.81
2023-03-12T10:09:05.997Z,4.38
2023-03-12T10:11:12.506Z,4.15
2023-03-12T10:13:35.643Z,4.02
2023-03-12T10:15:42.681Z,4.16
2023-03-12T10:17:57.947Z,4.88
2023-03-12T10:20:10.561Z,4.52
2023-03-12T10:22:14.459Z,4.41
2023-03-12T10:24:19.504Z,4.38
2023-03-12T10:26:19.157Z,4.69
2023-03-12T10:28:19.936Z,4.86
2023-03-12T10:30:24.414Z,4.53
2023-03-12T10:32:24.851Z,4.88
2023-03-12T10:34:24.014Z,4.84
2023-03-12T10:36:22.151Z,4.87
2023-03-12T10:38:21.810Z,4.53
2023-03-12T10:40:20.648Z,4.34
2023-03-12T10:42:19.665Z,4.33
2023-03-12T10:44:20.995Z,4.48
2023-03-12T10:46:41.584Z,4.56
2023-03-12T10:48:36.915Z,4.72
2023-03-12T10:50:34.504Z,4.58
2023-03-12T10:52:29.869Z,4.57
2023-03-12T10:54:25.958Z,4.30
2023-03-12T10:56:22.626Z,4.74
2023-03-12T10:58:26.164Z,4.69
2023-03-12T11:00:25.402Z,4.63
2023-03-12T11:02:38.012Z,4.72
2023-03-12T11:04:35.343Z,4.83
2023-03-12T11:06:32.528Z,5.47
2023-03-12T11:08:30.632Z,5.41
2023-03-12T11:10:28.271Z,5.06
2023-03-12T11:12:29.075Z,4.90
2023-03-12T11:14:26.071Z,4.92
2023-03-12T11:16:32.130Z,5.12
2023-03-12T11:18:34.858Z,5.40
2023-03-12T11:20:33.705Z,5.78
2023-03-12T11:22:34.204Z,5.79
2023-03-12T11:24:30.364Z,5.20
2023-03-12T11:26:28.210Z,5.09
2023-03-12T11:28:28.150Z,5.11
2023-03-12T11:30:27.901Z,5.15
2023-03-12T11:32:30.091Z,5.39
2023-03-12T11:34:31.525Z,5.67
2023-03-12T11:36:41.425Z,5.10
2023-03-12T11:38:42.536Z,5.31
2023-03-12T11:40:55.639Z,5.25
2023-03-12T11:43:09.503Z,5.32
2023-03-12T11:45:14.906Z,5.37
2023-03-12T11:47:20.985Z,5.32
2023-03-12T11:49:29.523Z,5.50
2023-03-12T11:51:36.725Z,5.67
2023-03-12T11:53:45.998Z,5.89
2023-03-12T11:55:58.569Z,5.55
2023-03-12T11:58:05.159Z,5.51
2023-03-12T12:00:12.375Z,5.20
2023-03-12T12:02:25.547Z,4.95
2023-03-12T12:04:54.904Z,4.88
2023-03-12T12:07:03.237Z,5.30
2023-03-12T12:09:08.757Z,5.59
2023-03-12T12:11:11.117Z,5.53
2023-03-12T12:13:13.584Z,5.45
2023-03-12T12:15:20.726Z,5.44
2023-03-12T12:17:28.233Z,5.27
2023-03-12T12:19:35.372Z,5.01
2023-03-12T12:21:45.112Z,5.36
2023-03-12T12:23:56.969Z,5.27
2023-03-12T12:26:09.219Z,5.28
2023-03-12T12:28:31.767Z,5.42
2023-03-12T12:30:38.714Z,5.49
2023-03-12T12:32:44.415Z,5.67
2023-03-12T12:35:06.090Z,5.58
2023-03-12T12:37:18.702Z,5.50
2023-03-12T12:39:18.194Z,5.47
2023-03-12T12:41:18.575Z,5.21
2023-03-12T12:43:36.063Z,5.06
2023-03-12T12:45:32.179Z,5.08
2023-03-12T12:47:37.716Z,5.35
2023-03-12T12:49:39.652Z,5.23
2023-03-12T12:51:40.028Z,5.21
2023-03-12T12:53:43.864Z,5.27
2023-03-12T12:55:43.282Z,5.42
2023-03-12T12:57:44.093Z,5.33
2023-03-12T12:59:43.213Z,5.07
2023-03-12T13:01:40.649Z,5.19
2023-03-12T13:03:35.824Z,5.36
2023-03-12T13:05:43.428Z,5.04
2023-03-12T13:07:38.508Z,5.02
2023-03-12T13:09:46.174Z,5.01
2023-03-12T13:11:46.223Z,4.99
2023-03-12T13:13:41.490Z,4.98
2023-03-12T13:15:43.485Z,4.84
2023-03-12T13:17:59.638Z,4.77
2023-03-12T13:20:01.526Z,5.34
2023-03-12T13:22:08.527Z,5.25
2023-03-12T13:24:18.280Z,5.25
2023-03-12T13:26:23.860Z,5.23
2023-03-12T13:28:38.050Z,5.41
2023-03-12T13:30:50.182Z,5.07
2023-03-12T13:33:14.392Z,4.90
2023-03-12T13:35:34.118Z,5.00
2023-03-12T13:37:53.093Z,4.99
2023-03-12T13:39:48.439Z,5.04
2023-03-12T13:41:50.370Z,5.11
2023-03-12T13:44:23.694Z,5.02
2023-03-12T13:46:35.846Z,4.98
2023-03-12T13:48:31.377Z,5.18
2023-03-12T13:50:26.790Z,5.15
2023-03-12T13:52:25.559Z,5.08
2023-03-12T13:54:21.950Z,5.00
2023-03-12T13:56:22.019Z,4.91
2023-03-12T13:58:23.341Z,4.73
2023-03-12T14:00:22.549Z,4.76
2023-03-12T14:02:25.295Z,4.69
2023-03-12T14:04:25.177Z,4.74
2023-03-12T14:06:23.093Z,5.00
2023-03-12T14:08:33.870Z,5.16
2023-03-12T14:10:36.400Z,5.06
2023-03-12T14:12:38.265Z,4.81
2023-03-12T14:15:06.627Z,4.74
2023-03-12T14:17:05.494Z,4.82
2023-03-12T14:19:01.563Z,4.70
2023-03-12T14:21:01.297Z,4.59
2023-03-12T14:23:01.672Z,4.63
2023-03-12T14:25:01.965Z,4.55
2023-03-12T14:26:58.018Z,4.60
2023-03-12T14:29:01.955Z,4.65
2023-03-12T14:31:04.279Z,4.65
2023-03-12T14:33:01.986Z,4.70
2023-03-12T14:35:05.669Z,4.52
2023-03-12T14:37:05.910Z,4.52
2023-03-12T14:39:11.679Z,4.58
2023-03-12T14:41:14.570Z,4.64
2023-03-12T14:43:23.528Z,4.52
2023-03-12T14:45:23.003Z,4.70
2023-03-12T14:47:21.405Z,4.61
2023-03-12T14:49:23.103Z,4.58
2023-03-12T14:51:24.619Z,4.34
2023-03-12T14:53:25.850Z,4.34
2023-03-12T14:55:23.822Z,4.29
2023-03-12T14:57:24.774Z,4.12
2023-03-12T14:59:26.489Z,4.23
2023-03-12T15:01:24.321Z,4.32
2023-03-12T15:03:21.998Z,4.26
2023-03-12T15:05:20.539Z,4.31
2023-03-12T15:07:18.261Z,4.22
2023-03-12T15:09:22.115Z,4.17
2023-03-12T15:11:24.606Z,4.34
2023-03-12T15:13:22.296Z,4.48
2023-03-12T15:15:32.177Z,4.41
2023-03-12T15:17:32.274Z,4.51
2023-03-12T15:19:35.579Z,4.26
2023-03-12T15:21:31.068Z,4.25
2023-03-12T15:23:28.220Z,4.11
2023-03-12T15:25:28.752Z,3.97
2023-03-12T15:27:32.859Z,3.98
2023-03-12T15:29:29.873Z,3.87
2023-03-12T15:31:25.153Z,3.86
2023-03-12T15:33:26.518Z,3.81
2023-03-12T15:35:29.954Z,3.96
2023-03-12T15:37:32.446Z,4.17
2023-03-12T15:39:30.283Z,4.23
2023-03-12T15:41:29.501Z,4.25
2023-03-12T15:43:27.546Z,4.09
2023-03-12T15:45:26.024Z,3.94
2023-03-12T15:47:23.241Z,3.86
2023-03-12T15:49:28.424Z,3.85
2023-03-12T15:51:36.413Z,3.92
2023-03-12T15:53:34.066Z,3.78
2023-03-12T15:55:32.747Z,3.96
2023-03-12T15:57:28.964Z,3.89
2023-03-12T15:59:27.645Z,3.85
2023-03-12T16:01:28.079Z,3.95
2023-03-12T16:03:24.532Z,3.87
2023-03-12T16:05:20.483Z,3.70
2023-03-12T16:07:18.072Z,3.64
2023-03-12T16:09:19.672Z,3.72
2023-03-12T16:11:19.717Z,3.62
2023-03-12T16:13:18.549Z,3.66
2023-03-12T16:15:17.725Z,3.60
2023-03-12T16:17:17.925Z,3.70
2023-03-12T16:19:14.925Z,3.70
2023-03-12T16:21:10.706Z,3.68
2023-03-12T16:23:08.333Z,3.72
2023-03-12T16:25:04.375Z,3.77
2023-03-12T16:27:01.443Z,3.54
2023-03-12T16:28:56.757Z,3.42
2023-03-12T16:30:52.217Z,3.30
2023-03-12T16:32:48.046Z,3.37
2023-03-12T16:34:43.762Z,3.55
2023-03-12T16:36:39.811Z,3.44
2023-03-12T16:38:37.333Z,3.47
2023-03-12T16:40:35.636Z,3.29
2023-03-12T16:42:34.137Z,3.18
2023-03-12T16:44:32.285Z,3.16
2023-03-12T16:46:31.779Z,3.18
2023-03-12T16:48:27.757Z,3.14
2023-03-12T16:50:24.915Z,3.09
2023-03-12T16:52:22.484Z,3.26
2023-03-12T16:54:20.435Z,3.22
2023-03-12T16:56:20.053Z,3.18
2023-03-12T16:58:18.079Z,3.19
2023-03-12T17:00:17.585Z,3.15
2023-03-12T17:02:18.675Z,3.24
2023-03-12T17:04:14.593Z,3.22
2023-03-12T17:06:11.077Z,3.12
2023-03-12T17:08:07.137Z,3.21
2023-03-12T17:10:05.441Z,3.20
2023-03-12T17:12:01.012Z,3.25
2023-03-12T17:13:59.705Z,3.27
2023-03-12T17:15:55.667Z,3.29
2023-03-12T17:17:51.289Z,3.36
2023-03-12T17:19:46.655Z,3.29
2023-03-12T17:21:41.786Z,3.15
2023-03-12T17:23:37.195Z,3.14
2023-03-12T17:25:37.453Z,3.21
2023-03-12T17:27:32.929Z,3.25
2023-03-12T17:29:27.991Z,3.23
2023-03-12T17:31:24.735Z,3.25
2023-03-12T17:33:21.549Z,3.25
2023-03-12T17:35:17.015Z,3.27
2023-03-12T17:37:12.077Z,3.12
2023-03-12T17:39:07.444Z,3.01
2023-03-12T17:41:23.472Z,3.02
2023-03-12T17:43:21.141Z,3.02
2023-03-12T17:45:16.527Z,2.90
2023-03-12T17:47:12.144Z,2.94
2023-03-12T17:49:07.236Z,2.81
2023-03-12T17:51:02.700Z,2.75
2023-03-12T17:52:57.740Z,2.82
2023-03-12T17:54:53.181Z,2.76
2023-03-12T17:56:51.083Z,2.70
2023-03-12T17:58:46.966Z,2.59
2023-03-12T18:00:42.064Z,2.61
2023-03-12T18:02:37.459Z,2.58
2023-03-12T18:04:32.728Z,2.59
2023-03-12T18:06:28.302Z,2.57
2023-03-12T18:08:23.281Z,2.56
2023-03-12T18:10:19.609Z,2.60
2023-03-12T18:12:17.269Z,2.65
2023-03-12T18:14:12.882Z,2.69
2023-03-12T18:16:08.585Z,2.79
2023-03-12T18:18:03.956Z,2.83
2023-03-12T18:19:58.945Z,2.83
2023-03-12T18:21:54.328Z,2.82
2023-03-12T18:23:49.466Z,2.84
2023-03-12T18:25:45.552Z,2.70
2023-03-12T18:27:43.477Z,2.70
2023-03-12T18:29:40.830Z,2.72
2023-03-12T18:31:36.317Z,2.71
2023-03-12T18:33:31.676Z,2.72
2023-03-12T18:35:29.165Z,2.79
2023-03-12T18:37:25.036Z,2.66
2023-03-12T18:39:20.145Z,2.58
2023-03-12T18:41:17.076Z,2.58
2023-03-12T18:43:14.874Z,2.56
2023-03-12T18:45:11.065Z,2.48
2023-03-12T18:47:06.182Z,2.54
2023-03-12T18:49:07.769Z,2.54
2023-03-12T18:51:03.031Z,2.53
2023-03-12T18:52:58.404Z,2.45
2023-03-12T18:54:53.891Z,2.49
2023-03-12T18:56:49.178Z,2.59
2023-03-12T18:58:46.775Z,2.51
2023-03-12T19:00:42.358Z,2.48
2023-03-12T19:02:37.641Z,2.48
2023-03-12T19:04:33.163Z,2.55
2023-03-12T19:06:40.839Z,2.46
2023-03-12T19:08:43.800Z,2.50
2023-03-12T19:10:39.194Z,2.42
2023-03-12T19:12:45.446Z,2.49
2023-03-12T19:14:47.357Z,2.49
2023-03-12T19:16:43.133Z,2.48
2023-03-12T19:18:39.891Z,2.36
2023-03-12T19:20:36.546Z,2.42
2023-03-12T19:22:31.996Z,2.33
2023-03-12T19:24:27.876Z,2.38
2023-03-12T19:26:23.530Z,2.38
2023-03-12T19:28:19.469Z,2.35
2023-03-12T19:30:18.519Z,2.37
2023-03-12T19:32:14.116Z,2.33
2023-03-12T19:34:09.299Z,2.34
2023-03-12T19:36:05.537Z,2.42
2023-03-12T19:38:02.042Z,2.44
2023-03-12T19:39:57.696Z,2.49
2023-03-12T19:41:54.628Z,2.55
2023-03-12T19:43:51.215Z,2.40
2023-03-12T19:45:50.363Z,2.33
2023-03-12T19:47:46.683Z,2.30
2023-03-12T19:49:42.445Z,2.28
2023-03-12T19:51:40.218Z,2.32
2023-03-12T19:53:36.162Z,2.44
2023-03-12T19:55:31.963Z,2.45
2023-03-12T19:57:27.982Z,2.43
2023-03-12T19:59:23.826Z,2.43
2023-03-12T20:01:21.837Z,2.47
2023-03-12T20:03:17.550Z,2.49
2023-03-12T20:05:13.456Z,2.51
2023-03-12T20:07:09.377Z,2.48
2023-03-12T20:09:05.247Z,2.54
2023-03-12T20:11:08.616Z,2.54
2023-03-12T20:13:07.532Z,2.51
2023-03-12T20:15:03.361Z,2.57
2023-03-12T20:17:01.522Z,2.61
2023-03-12T20:18:57.446Z,2.59
2023-03-12T20:20:52.688Z,2.62
2023-03-12T20:22:48.269Z,2.61
2023-03-12T20:24:44.062Z,2.65
2023-03-12T20:26:41.388Z,2.69
2023-03-12T20:28:37.138Z,2.73
2023-03-12T20:30:32.762Z,2.77
2023-03-12T20:32:30.518Z,2.77
2023-03-12T20:34:26.046Z,2.82
2023-03-12T20:36:21.053Z,2.80
2023-03-12T20:38:16.413Z,2.80
2023-03-12T20:40:12.618Z,2.85
2023-03-12T20:42:08.289Z,2.91
2023-03-12T20:44:03.577Z,2.90
2023-03-12T20:45:59.017Z,2.92
2023-03-12T20:47:57.849Z,2.94
2023-03-12T20:49:53.142Z,2.98
2023-03-12T20:51:48.571Z,2.98
2023-03-12T20:53:44.176Z,3.01
2023-03-12T20:55:40.614Z,3.00
2023-03-12T20:57:37.130Z,3.03
2023-03-12T20:59:34.562Z,3.03
2023-03-12T21:01:31.052Z,3.10
2023-03-12T21:03:29.657Z,3.13
2023-03-12T21:05:25.379Z,3.13
2023-03-12T21:07:20.729Z,3.16
2023-03-12T21:09:17.161Z,3.19
2023-03-12T21:11:13.302Z,3.19
2023-03-12T21:13:08.820Z,3.17
2023-03-12T21:15:06.426Z,3.21
2023-03-12T21:17:02.353Z,3.26
2023-03-12T21:19:05.105Z,3.23
2023-03-12T21:21:04.134Z,3.23
2023-03-12T21:23:01.227Z,3.24
2023-03-12T21:24:57.033Z,3.25
2023-03-12T21:26:53.292Z,3.27
2023-03-12T21:28:51.887Z,3.28
2023-03-12T21:30:48.405Z,3.32
2023-03-12T21:32:44.476Z,3.31
2023-03-12T21:34:42.493Z,3.33
2023-03-12T21:36:38.560Z,3.33
2023-03-12T21:38:33.604Z,3.36
2023-03-12T21:40:29.205Z,3.38
2023-03-12T21:42:24.411Z,3.42
2023-03-12T21:44:20.358Z,3.44
2023-03-12T21:46:17.145Z,3.43
2023-03-12T21:48:13.754Z,3.42
2023-03-12T21:50:13.836Z,3.48
2023-03-12T21:52:09.187Z,3.54
2023-03-12T21:54:04.220Z,3.56
2023-03-12T21:56:00.880Z,3.54
2023-03-12T21:57:55.858Z,3.56
2023-03-12T21:59:51.208Z,3.57
2023-03-12T22:01:46.227Z,3.61
2023-03-12T22:03:43.384Z,3.63
2023-03-12T22:05:41.358Z,3.66
2023-03-12T22:07:36.761Z,3.69
2023-03-12T22:09:31.705Z,3.73
2023-03-12T22:11:27.163Z,3.75
2023-03-12T22:13:22.264Z,3.80
2023-03-12T22:15:17.595Z,3.81
2023-03-12T22:17:12.534Z,3.84
2023-03-12T22:19:08.557Z,3.87
2023-03-12T22:21:07.618Z,3.89
2023-03-12T22:23:03.007Z,3.95
2023-03-12T22:24:58.041Z,3.98
2023-03-12T22:26:53.387Z,3.99
2023-03-12T22:28:51.965Z,4.03
2023-03-12T22:30:47.787Z,4.06
2023-03-12T22:32:43.130Z,4.06
2023-03-12T22:34:38.956Z,4.07
2023-03-12T22:36:36.888Z,4.08
2023-03-12T22:38:32.506Z,4.10
2023-03-12T22:40:28.722Z,4.10
2023-03-12T22:42:23.921Z,4.12
2023-03-12T22:44:19.568Z,4.12
2023-03-12T22:46:16.474Z,4.13
2023-03-12T22:48:12.157Z,4.14
2023-03-12T22:50:08.010Z,4.17
2023-03-12T22:52:06.717Z,4.15
2023-03-12T22:54:01.975Z,4.17
2023-03-12T22:56:02.179Z,4.18
2023-03-12T22:57:59.832Z,4.22
2023-03-12T22:59:55.556Z,4.22
2023-03-12T23:01:50.903Z,4.23
2023-03-12T23:03:47.936Z,4.27
2023-03-12T23:05:42.886Z,4.30
2023-03-12T23:07:40.377Z,4.32
2023-03-12T23:09:35.774Z,4.35
2023-03-12T23:11:31.235Z,4.37
2023-03-12T23:13:27.313Z,4.41
2023-03-12T23:15:29.057Z,4.42
2023-03-12T23:17:30.242Z,4.47
2023-03-12T23:19:25.566Z,4.50
2023-03-12T23:21:22.614Z,4.54
2023-03-12T23:23:20.175Z,4.56
2023-03-12T23:25:15.463Z,4.61
2023-03-12T23:27:10.467Z,4.63
2023-03-12T23:29:05.854Z,4.61
2023-03-12T23:31:02.848Z,4.64
2023-03-12T23:32:58.000Z,4.61
2023-03-12T23:34:53.655Z,4.61
2023-03-12T23:36:49.063Z,4.61
2023-03-12T23:38:48.330Z,4.66
2023-03-12T23:40:43.226Z,4.67
2023-03-12T23:42:38.233Z,4.66
2023-03-12T23:44:33.737Z,4.70
2023-03-12T23:46:29.837Z,4.69
2023-03-12T23:48:25.438Z,4.70
2023-03-12T23:50:20.503Z,4.70
2023-03-12T23:52:15.441Z,4.73
2023-03-12T23:54:13.484Z,4.72
2023-03-12T23:56:11.334Z,4.74
2023-03-12T23:58:06.606Z,4.76
